Terminal Aerodrome Forecast
Issued by NWS

Home | Current Version | Previous Version | Text Only | Print | Product List | Glossary On
Versions: 1 2 3 4 5 6 7 8 9 10 11 12 13 14 15 16 17
000
FTUS42 KMLB 232330
TAFTIX
TAF
KTIX 232330Z 2400/2424 18007KT P6SM VCSH SCT030 BKN050 BKN110
      TEMPO 2400/2402 -SHRA BKN035
     FM241000 24004KT P6SM BKN008
     FM241400 25011KT P6SM BKN025
     FM241800 24011KT P6SM SCT050 BKN100
      AMD NOT SKED 2401/2411=

USA.gov is the U.S. government's official web portal to all federal, state and local government web resources and services.